KAVP Detailed METAR

Nearby METAR Reports

 

KAVP - Avoca/Wilkes B., Pennsylvania, USA
Distance from station: SW 13mi, 22km
Updated: Fri, 04-Dec-2020 17:54 EST
Overcast
Overcast
 Wind from SSW
Wind: SSW 7 mph , 11 km/h
Temperature: 48°F , 9°C
Wind Chill: 45°F , 7°C
Dew Point: 32°F , 0°C
Humidity: 54%
Barometer: 29.90 inHg , 1012.5 hPa
Clouds: Overcast
Visibility: 10 miles , 16 km
Cloud details: Overcast 5500 ft
2020/12/04 22:54 KAVP 042254Z AUTO 20006KT 10SM OVC055 09/00 A2990 RMK AO2 SLP127 T00890000
KMPO - Mt. Pocono, Pennsylvania, USA
Distance from station: SSE 26mi, 43km
Updated: Fri, 04-Dec-2020 17:53 EST
Overcast
Overcast
 Wind from WSW
Wind: WSW 8 mph , 13 km/h
Temperature: 39°F , 4°C
Wind Chill: 33°F , 1°C
Dew Point: 30°F , -1°C
Humidity: 70%
Barometer: 29.90 inHg , 1012.5 hPa
Clouds: Overcast
Visibility: 10 miles , 16 km
Cloud details: Overcast 4200 ft
2020/12/04 22:53 KMPO 042253Z AUTO 24007KT 10SM OVC042 04/M01 A2990 RMK AO2 SLP139 T00441006
 
KMSV - Monticello, New York, USA
Distance from station: ENE 43mi, 69km
Updated: Fri, 04-Dec-2020 17:56 EST
Partly cloudy
Partly cloudy
 Wind from SSW
Wind: SSW 8 mph , 13 km/h
Temperature: 43°F , 6°C
Wind Chill: 38°F , 3°C
Dew Point: 28°F , -2°C
Humidity: 57%
Barometer: 29.89 inHg , 1012.2 hPa
Clouds: Partly cloudy
Visibility: 10 miles , 16 km
Cloud details: Partly cloudy 10000 ft
2020/12/04 22:56 KMSV 042256Z AUTO 20007KT 10SM SCT100 06/M02 A2989 RMK AO2 SLP129 T00611022
KFWN - Sussex, New Jersey, USA
Distance from station: ESE 52mi, 84km
Updated: Fri, 04-Dec-2020 17:53 EST
Overcast
Overcast
 Wind from SSW
Wind: SSW 10 mph , 17 km/h
Temperature: 46°F , 8°C
Wind Chill: 41°F , 5°C
Dew Point: 36°F , 2°C
Humidity: 66%
Barometer: 29.93 inHg , 1013.5 hPa
Clouds: Overcast
Visibility: 10 miles , 16 km
Cloud details: Mostly cloudy 5500 ft
Overcast 8000 ft
2020/12/04 22:53 KFWN 042253Z AUTO 20009KT 10SM BKN055 OVC080 08/02 A2993 RMK AO2 SLP138 T00780022
 
K12N - Andover, New Jersey, USA
Distance from station: SE 54mi, 87km
Updated: Fri, 04-Dec-2020 17:54 EST

 Wind from calm
Wind: Calm
Temperature: 43°F , 6°C
Dew Point: 39°F , 4°C
Humidity: 87%
Barometer: 29.95 inHg , 1014.2 hPa
2020/12/04 22:54 K12N 042254Z AUTO 00000KT 06/04 A2995 RMK AO1 SLP149 P0002 T00610039
KBGM - Binghamton, New York, USA
Distance from station: NNW 55mi, 88km
Updated: Fri, 04-Dec-2020 17:53 EST
Overcast
Overcast
 Wind from WSW
Wind: WSW 12 mph , 19 km/h, Gust: 18 mph , 30 km/h
Temperature: 45°F , 7°C
Wind Chill: 39°F , 4°C
Dew Point: 27°F , -3°C
Humidity: 49%
Barometer: 29.84 inHg , 1010.5 hPa
Clouds: Overcast
Visibility: 10 miles , 16 km
Cloud details: Overcast 6000 ft
2020/12/04 22:53 KBGM 042253Z AUTO 25010G16KT 10SM OVC060 07/M03 A2984 RMK AO2 SLP113 T00671033
 
KABE - Allentown, Pennsylvania, USA
Distance from station: S 58mi, 94km
Updated: Fri, 04-Dec-2020 17:51 EST
Light rain, Overcast
Light rain, Overcast
 Wind from SSW
Wind: SSW 6 mph , 9 km/h
Temperature: 43°F , 6°C
Wind Chill: 39°F , 4°C
Dew Point: 39°F , 4°C
Humidity: 87%
Barometer: 29.97 inHg , 1014.9 hPa
Summary: Light rain
Clouds: Overcast
Visibility: 7 miles , 11 km
Cloud details: Mostly cloudy 3900 ft
Overcast 5000 ft
2020/12/04 22:51 KABE 042251Z 20005KT 7SM -RA BKN039 OVC050 06/04 A2997 RMK AO2 SLP151 P0004 T00610039
KXLL - Allentown Queen, Pennsylvania, USA
Distance from station: S 64mi, 103km
Updated: Fri, 04-Dec-2020 18:15 EST
Light rain, Overcast
Light rain, Overcast
 Wind from SSW
Wind: SSW 7 mph , 11 km/h
Temperature: 43°F , 6°C
Wind Chill: 39°F , 4°C
Dew Point: 41°F , 5°C
Humidity: 93%
Barometer: 29.99 inHg , 1015.6 hPa
Summary: Light rain
Clouds: Overcast
Visibility: 7 miles , 11 km
Cloud details: Mostly cloudy 4900 ft
Overcast 5500 ft
2020/12/04 23:15 KXLL 042315Z AUTO 20006KT 7SM -RA BKN049 OVC055 06/05 A2999 RMK AO2 P0001
 
KMGJ - Montgomery, New York, USA
Distance from station: E 67mi, 108km
Updated: Fri, 04-Dec-2020 17:54 EST
Overcast
Overcast
 Wind from SW
Wind: SW 12 mph , 19 km/h
Temperature: 46°F , 8°C
Wind Chill: 40°F , 4°C
Dew Point: 32°F , 0°C
Humidity: 57%
Barometer: 29.90 inHg , 1012.5 hPa
Clouds: Overcast
Visibility: 10 miles , 16 km
Cloud details: Few Clouds 6500 ft
Overcast 10000 ft
2020/12/04 22:54 KMGJ 042254Z AUTO 22010KT 10SM FEW065 OVC100 08/00 A2990 RMK AO2 SLP128 T00830000
KIPT - Williamsport, Pennsylvania, USA
Distance from station: WSW 72mi, 116km
Updated: Fri, 04-Dec-2020 17:54 EST
Overcast
Overcast
 Wind from SSW
Wind: SSW 5 mph , 7 km/h
Temperature: 48°F , 9°C
Wind Chill: 46°F , 8°C
Dew Point: 28°F , -2°C
Humidity: 46%
Barometer: 29.89 inHg , 1012.2 hPa
Clouds: Overcast
Visibility: 10 miles , 16 km
Cloud details: Overcast 5000 ft
2020/12/04 22:54 KIPT 042254Z 20004KT 10SM OVC050 09/M02 A2989 RMK AO2 SLP125 T00941022
 
KUKT - Quakertown Arp, Pennsylvania, USA
Distance from station: S 74mi, 119km
Updated: Fri, 04-Dec-2020 18:15 EST
Mist, Overcast
Mist, Overcast
 Wind from SSW
Wind: SSW 6 mph , 9 km/h
Temperature: 43°F , 6°C
Wind Chill: 39°F , 4°C
Dew Point: 43°F , 6°C
Humidity: 100%
Barometer: 29.99 inHg , 1015.6 hPa
Summary: Mist
Clouds: Overcast
Visibility: 6 miles , 10 km
Cloud details: Mostly cloudy 500 ft
Mostly cloudy 1400 ft
Overcast 3900 ft
2020/12/04 23:15 KUKT 042315Z AUTO 20005KT 6SM BR BKN005 BKN014 OVC039 06/06 A2999 RMK A01
KSMQ - Somerville, New Jersey, USA
Distance from station: SE 76mi, 123km
Updated: Fri, 04-Dec-2020 17:53 EST
Light rain, Mist, Overcast
Light rain, Mist, Overcast
 Wind from S
Wind: S 3 mph , 6 km/h
Temperature: 45°F , 7°C
Dew Point: 43°F , 6°C
Humidity: 93%
Barometer: 29.96 inHg , 1014.6 hPa
Summary: Light rain, Mist
Clouds: Overcast
Visibility: 6 miles , 10 km
Cloud details: Few Clouds 1400 ft
Partly cloudy 3000 ft
Overcast 6000 ft
2020/12/04 22:53 KSMQ 042253Z AUTO 18003KT 6SM -RA BR FEW014 SCT030 OVC060 07/06 A2996 RMK AO2 SLP148 P0003 T00670056
 
KSWF - Newburgh/Stewart, New York, USA
Distance from station: E 77mi, 123km
Updated: Fri, 04-Dec-2020 17:45 EST

 
2020/12/04 22:45 KSWF 042245Z E24012KT 10SM BKN060 OVC080 09/01 A2991
KMMU - Morristown Muni, New Jersey, USA
Distance from station: SE 77mi, 124km
Updated: Fri, 04-Dec-2020 17:50 EST
Light rain, Overcast
Light rain, Overcast
 Wind from SSW
Wind: SSW 9 mph , 15 km/h
Temperature: 45°F , 7°C
Wind Chill: 40°F , 4°C
Dew Point: 45°F , 7°C
Humidity: 100%
Barometer: 29.99 inHg , 1015.6 hPa
Summary: Light rain
Clouds: Overcast
Visibility: 10 miles , 16 km
Cloud details: Mostly cloudy 900 ft
Mostly cloudy 3200 ft
Overcast 7000 ft
2020/12/04 22:50 KMMU 042250Z 21008KT 10SM -RA BKN009 BKN032 OVC070 07/07 A2999
 
KCDW - Caldwell, New Jersey, USA
Distance from station: ESE 79mi, 127km
Updated: Fri, 04-Dec-2020 17:53 EST
Light rain, Overcast
Light rain, Overcast
 Wind from SSW
Wind: SSW 7 mph , 11 km/h
Temperature: 46°F , 8°C
Wind Chill: 42°F , 6°C
Dew Point: 41°F , 5°C
Humidity: 82%
Barometer: 29.99 inHg , 1015.6 hPa
Summary: Light rain
Clouds: Overcast
Visibility: 8 miles , 13 km
Cloud details: Few Clouds 900 ft
Mostly cloudy 3300 ft
Overcast 6000 ft
2020/12/04 22:53 KCDW 042253Z 21006KT 8SM -RA FEW009 BKN033 OVC060 08/05 A2999 RMK AO2 SLP161 P0001 T00780050
KRDG - Reading, Pennsylvania, USA
Distance from station: SSW 80mi, 130km
Updated: Fri, 04-Dec-2020 18:13 EST
Rain, Overcast
Rain, Overcast
 Wind from SE
Wind: SE 5 mph , 7 km/h
Temperature: 45°F , 7°C
Wind Chill: 42°F , 6°C
Dew Point: 43°F , 6°C
Humidity: 93%
Barometer: 29.97 inHg , 1014.9 hPa
Summary: Rain
Clouds: Overcast
Visibility: 7 miles , 11 km
Cloud details: Mostly cloudy 800 ft
Overcast 1200 ft
2020/12/04 23:13 KRDG 042313Z 13004KT 7SM RA BKN008 OVC012 07/06 A2997 RMK AO2 CIG 006V010 P0003 T00670056
 
KITH - Ithaca/Tompkins, New York, USA
Distance from station: NW 81mi, 131km
Updated: Fri, 04-Dec-2020 17:56 EST
Overcast
Overcast
 Wind from WSW
Wind: WSW 8 mph , 13 km/h
Temperature: 45°F , 7°C
Wind Chill: 41°F , 5°C
Dew Point: 27°F , -3°C
Humidity: 49%
Barometer: 29.85 inHg , 1010.8 hPa
Clouds: Overcast
Visibility: 10 miles , 16 km
Cloud details: Overcast 4800 ft
2020/12/04 22:56 KITH 042256Z 24007KT 10SM OVC048 07/M03 A2985 RMK AO2 RAE05 SLP115 P0000 T00721028
KSEG - Selinsgrove, Pennsylvania, USA
Distance from station: SW 82mi, 132km
Updated: Fri, 04-Dec-2020 17:53 EST
Light rain, Overcast
Light rain, Overcast
 Wind from S
Wind: S 6 mph , 9 km/h
Temperature: 43°F , 6°C
Wind Chill: 39°F , 4°C
Dew Point: 34°F , 1°C
Humidity: 71%
Barometer: 29.94 inHg , 1013.9 hPa
Summary: Light rain
Clouds: Overcast
Visibility: 10 miles , 16 km
Cloud details: Mostly cloudy 3400 ft
Mostly cloudy 4200 ft
Overcast 5000 ft
2020/12/04 22:53 KSEG 042253Z AUTO 19005KT 10SM -RA BKN034 BKN042 OVC050 06/01 A2994 RMK AO2 RAB20 SLP143 P0000 T00610011
 
KELM - Elmira, New York, USA
Distance from station: WNW 82mi, 133km
Updated: Fri, 04-Dec-2020 17:53 EST
Mostly cloudy
Mostly cloudy
 Wind from WSW
Wind: WSW 7 mph , 11 km/h
Temperature: 48°F , 9°C
Wind Chill: 45°F , 7°C
Dew Point: 25°F , -4°C
Humidity: 40%
Barometer: 29.85 inHg , 1010.8 hPa
Clouds: Mostly cloudy
Visibility: 10 miles , 16 km
Cloud details: Partly cloudy 5000 ft
Mostly cloudy 8000 ft
2020/12/04 22:53 KELM 042253Z 25006KT 10SM SCT050 BKN080 09/M04 A2985 RMK AO2 SLP113 T00891044
KDYL - Doylestown, Pennsylvania, USA
Distance from station: SSE 83mi, 134km
Updated: Fri, 04-Dec-2020 18:03 EST
Light rain, Overcast
Light rain, Overcast
 Wind from SW
Wind: SW 7 mph , 11 km/h
Temperature: 45°F , 7°C
Wind Chill: 41°F , 5°C
Dew Point: 41°F , 5°C
Humidity: 87%
Barometer: 29.98 inHg , 1015.2 hPa
Summary: Light rain
Clouds: Overcast
Visibility: 10 miles , 16 km
Cloud details: Mostly cloudy 1600 ft
Overcast 6000 ft
2020/12/04 23:03 KDYL 042303Z AUTO 22006KT 10SM -RA BKN016 OVC060 07/05 A2998 RMK AO2 P0000 T00670050